createdAt,value
2019-02-07T00:01:48.155Z,114.43
2019-02-07T00:04:17.660Z,122.50
2019-02-07T00:06:47.211Z,128.20
2019-02-07T00:09:17.060Z,116.33
2019-02-07T00:11:46.974Z,127.30
2019-02-07T00:14:16.523Z,127.03
2019-02-07T00:16:46.096Z,133.20
2019-02-07T00:19:15.643Z,126.63
2019-02-07T00:21:45.002Z,127.50
2019-02-07T00:24:14.404Z,125.33
2019-02-07T00:26:44.051Z,124.03
2019-02-07T00:29:13.536Z,118.53
2019-02-07T00:31:42.798Z,120.90
2019-02-07T00:34:12.066Z,122.13
2019-02-07T00:36:41.379Z,125.57
2019-02-07T00:39:10.799Z,119.30
2019-02-07T00:41:40.263Z,119.07
2019-02-07T00:44:09.638Z,114.90
2019-02-07T00:46:39.046Z,116.47
2019-02-07T00:49:09.936Z,118.33
2019-02-07T00:51:39.345Z,123.77
2019-02-07T00:54:08.747Z,112.87
2019-02-07T00:56:40.403Z,116.40
2019-02-07T00:59:09.953Z,114.47
2019-02-07T01:01:41.395Z,107.33
2019-02-07T01:04:10.728Z,110.10
2019-02-07T01:06:39.998Z,111.57
2019-02-07T01:09:11.070Z,108.93
2019-02-07T01:11:40.367Z,108.33
2019-02-07T01:14:09.655Z,107.00
2019-02-07T01:16:40.079Z,109.23
2019-02-07T01:19:09.575Z,111.93
2019-02-07T01:21:39.207Z,101.67
2019-02-07T01:24:08.923Z,108.73
2019-02-07T01:26:38.254Z,105.77
2019-02-07T01:29:07.855Z,108.57
2019-02-07T01:31:37.050Z,101.63
2019-02-07T01:34:06.450Z,102.80
2019-02-07T01:36:35.791Z,112.47
2019-02-07T01:39:08.507Z,97.83
2019-02-07T01:41:37.796Z,108.60
2019-02-07T01:44:07.304Z,97.83
2019-02-07T01:46:36.929Z,107.63
2019-02-07T01:49:06.206Z,96.17
2019-02-07T01:51:35.623Z,98.97
2019-02-07T01:54:05.033Z,98.70
2019-02-07T01:56:34.639Z,108.03
2019-02-07T01:59:04.011Z,102.13
2019-02-07T02:01:33.647Z,98.87
2019-02-07T02:04:03.019Z,102.67
2019-02-07T02:06:32.383Z,102.67
2019-02-07T02:09:01.606Z,100.47
2019-02-07T02:11:31.015Z,101.87
2019-02-07T02:14:00.328Z,110.07
2019-02-07T02:16:30.048Z,105.87
2019-02-07T02:18:59.496Z,103.97
2019-02-07T02:21:28.776Z,107.30
2019-02-07T02:23:58.051Z,127.03
2019-02-07T02:26:27.346Z,112.93
2019-02-07T02:28:57.413Z,118.43
2019-02-07T02:31:26.862Z,113.17
2019-02-07T02:33:56.222Z,131.90
2019-02-07T02:36:25.520Z,123.33
2019-02-07T02:38:54.778Z,115.67
2019-02-07T02:41:24.175Z,126.73
2019-02-07T02:43:53.566Z,124.07
2019-02-07T02:46:23.311Z,121.50
2019-02-07T02:48:52.807Z,110.77
2019-02-07T02:51:22.411Z,120.40
2019-02-07T02:53:53.414Z,116.23
2019-02-07T02:56:22.686Z,119.90
2019-02-07T02:58:52.059Z,119.00
2019-02-07T03:01:52.319Z,116.33
2019-02-07T03:04:31.360Z,115.77
2019-02-07T03:07:20.956Z,120.43
2019-02-07T03:10:08.138Z,115.87
2019-02-07T03:12:55.391Z,108.23
2019-02-07T03:15:49.298Z,114.97
2019-02-07T03:18:34.401Z,108.17
2019-02-07T03:21:24.524Z,114.37
2019-02-07T03:24:07.522Z,107.90
2019-02-07T03:26:47.105Z,109.23
2019-02-07T03:29:31.794Z,114.40
2019-02-07T03:32:11.733Z,112.43
2019-02-07T03:35:02.188Z,104.87
2019-02-07T03:37:50.563Z,108.67
2019-02-07T03:40:37.792Z,104.87
2019-02-07T03:43:31.528Z,108.70
2019-02-07T03:46:34.775Z,100.53
2019-02-07T03:49:39.954Z,104.57
2019-02-07T03:52:27.787Z,107.97
2019-02-07T03:55:09.279Z,105.43
2019-02-07T03:58:01.730Z,108.60
2019-02-07T04:01:05.236Z,106.67
2019-02-07T04:03:43.205Z,104.53
2019-02-07T04:06:21.785Z,99.23
2019-02-07T04:09:08.491Z,102.40
2019-02-07T04:11:55.578Z,107.53
2019-02-07T04:14:42.451Z,101.57
2019-02-07T04:17:33.819Z,107.20
2019-02-07T04:20:25.072Z,100.50
2019-02-07T04:23:19.320Z,106.83
2019-02-07T04:26:10.673Z,105.17
2019-02-07T04:28:58.959Z,107.73
2019-02-07T04:32:02.426Z,103.30
2019-02-07T04:34:55.609Z,100.13
2019-02-07T04:37:43.333Z,97.63
2019-02-07T04:40:31.677Z,100.63
2019-02-07T04:43:19.005Z,100.27
2019-02-07T04:46:26.730Z,108.20
2019-02-07T04:49:21.283Z,104.07
2019-02-07T04:52:09.636Z,103.40
2019-02-07T04:55:00.723Z,107.47
2019-02-07T04:58:04.317Z,108.27
2019-02-07T05:00:44.537Z,208.33
2019-02-07T05:03:52.148Z,180.60
2019-02-07T05:06:41.198Z,168.27
2019-02-07T05:09:30.651Z,164.87
2019-02-07T05:12:30.788Z,157.83
2019-02-07T05:15:12.250Z,146.63
2019-02-07T05:18:17.824Z,132.57
2019-02-07T05:20:58.937Z,128.67
2019-02-07T05:23:53.323Z,128.10
2019-02-07T05:26:44.247Z,127.17
2019-02-07T05:29:25.189Z,129.03
2019-02-07T05:32:05.362Z,128.80
2019-02-07T05:34:52.483Z,130.50
2019-02-07T05:37:39.538Z,132.43
2019-02-07T05:40:34.711Z,131.83
2019-02-07T05:43:24.187Z,128.83
2019-02-07T05:46:24.543Z,124.20
2019-02-07T05:49:11.462Z,121.53
2019-02-07T05:51:56.485Z,120.67
2019-02-07T05:54:50.755Z,126.33
2019-02-07T05:57:37.819Z,124.40
2019-02-07T06:00:27.337Z,126.53
2019-02-07T06:03:15.636Z,133.37
2019-02-07T06:06:01.838Z,130.07
2019-02-07T06:08:55.950Z,131.57
2019-02-07T06:11:42.565Z,124.30
2019-02-07T06:14:29.816Z,121.23
2019-02-07T06:17:14.641Z,131.07
2019-02-07T06:19:57.412Z,139.67
2019-02-07T06:22:34.958Z,126.23
2019-02-07T06:25:12.916Z,132.30
2019-02-07T06:27:58.595Z,123.13
2019-02-07T06:30:48.082Z,127.80
2019-02-07T06:33:54.723Z,121.17
2019-02-07T06:36:36.211Z,124.10
2019-02-07T06:39:28.599Z,130.23
2019-02-07T06:42:25.983Z,124.17
2019-02-07T06:45:29.155Z,123.77
2019-02-07T06:48:32.915Z,124.13
2019-02-07T06:51:35.806Z,124.33
2019-02-07T06:54:15.835Z,110.63
2019-02-07T06:57:02.560Z,123.27
2019-02-07T06:59:52.056Z,128.17
2019-02-07T07:02:49.355Z,130.20
2019-02-07T07:05:38.892Z,118.07
2019-02-07T07:08:28.668Z,109.43
2019-02-07T07:11:19.588Z,117.13
2019-02-07T07:13:54.114Z,110.87
2019-02-07T07:16:31.643Z,107.43
2019-02-07T07:19:18.385Z,114.07
2019-02-07T07:22:02.323Z,106.93
2019-02-07T07:24:49.650Z,97.77
2019-02-07T07:27:34.618Z,107.90
2019-02-07T07:30:22.783Z,142.07
2019-02-07T07:33:09.895Z,155.63
2019-02-07T07:36:07.135Z,156.60
2019-02-07T07:39:03.225Z,151.93
2019-02-07T07:41:45.118Z,139.57
2019-02-07T07:44:33.501Z,112.30
2019-02-07T07:47:36.951Z,97.97
2019-02-07T07:50:24.538Z,90.60
2019-02-07T07:53:22.070Z,81.57
2019-02-07T07:55:59.963Z,85.90
2019-02-07T07:58:46.735Z,81.83
2019-02-07T08:01:44.458Z,83.53
2019-02-07T08:04:32.834Z,82.13
2019-02-07T08:07:11.683Z,84.73
2019-02-07T08:10:05.934Z,83.60
2019-02-07T08:12:54.355Z,87.83
2019-02-07T08:15:51.664Z,86.50
2019-02-07T08:18:55.425Z,82.80
2019-02-07T08:21:42.532Z,79.57
2019-02-07T08:24:21.273Z,71.20
2019-02-07T08:27:08.713Z,77.43
2019-02-07T08:30:06.221Z,73.00
2019-02-07T08:32:52.700Z,74.73
2019-02-07T08:35:41.538Z,74.03
2019-02-07T08:38:45.726Z,73.40
2019-02-07T08:41:32.297Z,72.70
2019-02-07T08:44:14.158Z,83.17
2019-02-07T08:46:57.218Z,71.87
2019-02-07T08:49:48.783Z,70.10
2019-02-07T08:52:51.770Z,74.40
2019-02-07T08:55:46.052Z,74.33
2019-02-07T08:58:32.933Z,68.23
2019-02-07T09:01:24.355Z,72.43
2019-02-07T09:04:15.727Z,70.10
2019-02-07T09:07:11.152Z,68.47
2019-02-07T09:09:59.431Z,61.63
2019-02-07T09:12:55.183Z,60.97
2019-02-07T09:15:42.176Z,62.10
2019-02-07T09:18:45.739Z,62.67
2019-02-07T09:21:23.894Z,57.47
2019-02-07T09:24:19.305Z,63.83
2019-02-07T09:27:00.662Z,58.10
2019-02-07T09:30:01.080Z,64.30
2019-02-07T09:33:04.604Z,64.33
2019-02-07T09:35:42.560Z,63.40
2019-02-07T09:38:39.638Z,56.17
2019-02-07T09:41:28.103Z,55.07
2019-02-07T09:44:08.191Z,50.10
2019-02-07T09:46:52.982Z,54.57
2019-02-07T09:49:30.640Z,54.27
2019-02-07T09:52:18.940Z,54.97
2019-02-07T09:55:17.254Z,59.03
2019-02-07T09:58:03.367Z,56.03
2019-02-07T10:00:42.732Z,57.10
2019-02-07T10:03:39.835Z,60.83
2019-02-07T10:06:34.114Z,58.90
2019-02-07T10:09:23.899Z,63.93
2019-02-07T10:12:11.114Z,56.30
2019-02-07T10:15:01.241Z,55.70
2019-02-07T10:17:48.006Z,55.87
2019-02-07T10:20:31.759Z,54.37
2019-02-07T10:23:25.892Z,57.77
2019-02-07T10:26:07.124Z,56.33
2019-02-07T10:29:10.750Z,56.63
2019-02-07T10:32:14.387Z,53.33
2019-02-07T10:35:22.927Z,55.20
2019-02-07T10:38:02.117Z,51.03
2019-02-07T10:40:49.037Z,65.13
2019-02-07T10:43:41.507Z,67.03
2019-02-07T10:46:28.384Z,71.30
2019-02-07T10:49:12.746Z,68.47
2019-02-07T10:52:16.139Z,71.60
2019-02-07T10:55:07.252Z,67.07
2019-02-07T10:58:04.442Z,72.13
2019-02-07T11:00:56.302Z,69.40
2019-02-07T11:03:51.995Z,66.07
2019-02-07T11:06:40.169Z,70.30
2019-02-07T11:09:25.327Z,63.53
2019-02-07T11:12:12.326Z,59.10
2019-02-07T11:15:10.291Z,60.07
2019-02-07T11:18:01.284Z,53.60
2019-02-07T11:20:49.607Z,56.20
2019-02-07T11:23:36.908Z,57.27
2019-02-07T11:26:34.133Z,68.77
2019-02-07T11:29:25.490Z,61.33
2019-02-07T11:32:28.972Z,62.20
2019-02-07T11:35:15.450Z,53.50
2019-02-07T11:38:21.870Z,57.13
2019-02-07T11:41:02.279Z,57.83
2019-02-07T11:43:49.171Z,59.60
2019-02-07T11:46:37.513Z,52.20
2019-02-07T11:49:37.658Z,51.97
2019-02-07T11:52:25.427Z,52.83
2019-02-07T11:55:18.743Z,54.00
2019-02-07T11:58:06.314Z,49.93
2019-02-07T12:00:53.347Z,50.70
2019-02-07T12:03:40.706Z,51.30
2019-02-07T12:06:32.914Z,55.00
2019-02-07T12:09:18.245Z,52.23
2019-02-07T12:12:04.650Z,51.07
2019-02-07T12:14:41.489Z,51.70
2019-02-07T12:17:47.748Z,51.80
2019-02-07T12:20:40.164Z,49.67
2019-02-07T12:23:30.196Z,46.40
2019-02-07T12:26:21.642Z,48.33
2019-02-07T12:29:08.248Z,45.07
2019-02-07T12:31:59.312Z,43.83
2019-02-07T12:34:43.098Z,39.47
2019-02-07T12:37:40.559Z,45.77
2019-02-07T12:40:22.431Z,46.83
2019-02-07T12:43:10.779Z,44.17
2019-02-07T12:46:11.198Z,42.93
2019-02-07T12:48:57.919Z,46.93
2019-02-07T12:51:49.221Z,31.90
2019-02-07T12:54:43.533Z,37.50
2019-02-07T12:57:44.714Z,45.10
2019-02-07T13:00:31.255Z,42.83
2019-02-07T13:03:32.367Z,39.53
2019-02-07T13:06:19.627Z,43.27
2019-02-07T13:09:07.935Z,38.13
2019-02-07T13:11:45.029Z,39.13
2019-02-07T13:14:32.743Z,41.23
2019-02-07T13:17:39.323Z,42.10
2019-02-07T13:20:27.831Z,45.73
2019-02-07T13:23:28.241Z,47.90
2019-02-07T13:26:19.852Z,46.67
2019-02-07T13:29:11.001Z,46.20
2019-02-07T13:32:06.481Z,47.20
2019-02-07T13:40:44.908Z,67.47
2019-02-07T13:43:28.201Z,59.77
2019-02-07T13:46:19.271Z,62.20
2019-02-07T13:49:05.603Z,54.33
2019-02-07T13:51:54.012Z,60.43
2019-02-07T13:54:41.210Z,58.40
2019-02-07T13:57:42.218Z,57.73
2019-02-07T14:00:40.621Z,58.60
2019-02-07T14:03:31.142Z,64.27
2019-02-07T14:06:11.524Z,65.83
2019-02-07T14:09:00.003Z,68.60
2019-02-07T14:11:51.099Z,63.63
2019-02-07T14:14:38.712Z,66.80
2019-02-07T14:17:29.904Z,63.77
2019-02-07T14:20:18.379Z,65.70
2019-02-07T14:23:18.686Z,69.73
2019-02-07T14:26:13.333Z,68.90
2019-02-07T14:29:05.100Z,68.23
2019-02-07T14:32:05.922Z,65.07
2019-02-07T14:35:00.303Z,64.67
2019-02-07T14:37:48.724Z,67.67
2019-02-07T14:40:25.480Z,59.37
2019-02-07T14:43:03.745Z,62.93
2019-02-07T14:45:50.826Z,60.30
2019-02-07T14:48:24.872Z,59.23
2019-02-07T14:50:55.526Z,64.00
2019-02-07T14:53:25.242Z,66.57
2019-02-07T14:55:54.787Z,65.87
2019-02-07T14:58:24.357Z,58.33
2019-02-07T15:00:53.818Z,58.70
2019-02-07T15:03:23.236Z,60.37
2019-02-07T15:05:52.877Z,67.30
2019-02-07T15:08:22.264Z,72.60
2019-02-07T15:10:51.816Z,79.10
2019-02-07T15:13:21.750Z,98.60
2019-02-07T15:15:51.254Z,102.33
2019-02-07T15:18:20.965Z,133.57
2019-02-07T15:20:50.433Z,125.00
2019-02-07T15:23:19.816Z,119.93
2019-02-07T15:25:49.318Z,98.53
2019-02-07T15:28:18.784Z,94.93
2019-02-07T15:30:48.239Z,85.57
2019-02-07T15:33:17.618Z,118.03
2019-02-07T15:35:49.702Z,94.67
2019-02-07T15:38:19.307Z,83.07
2019-02-07T15:40:48.895Z,86.27
2019-02-07T15:43:18.634Z,87.33
2019-02-07T15:45:48.007Z,92.63
2019-02-07T15:48:17.984Z,101.10
2019-02-07T15:50:47.328Z,115.10
2019-02-07T15:53:16.720Z,128.63
2019-02-07T15:55:46.477Z,173.07
2019-02-07T15:58:16.959Z,189.90
2019-02-07T16:01:03.679Z,143.27
2019-02-07T16:03:42.797Z,125.73
2019-02-07T16:06:12.263Z,98.60
2019-02-07T16:08:41.803Z,103.13
2019-02-07T16:11:11.270Z,94.47
2019-02-07T16:13:40.656Z,80.07
2019-02-07T16:16:10.101Z,75.57
2019-02-07T16:18:41.795Z,82.10
2019-02-07T16:21:10.647Z,74.47
2019-02-07T16:23:40.044Z,89.33
2019-02-07T16:26:11.233Z,77.93
2019-02-07T16:28:40.835Z,91.47
2019-02-07T16:31:10.864Z,89.73
2019-02-07T16:33:40.427Z,92.70
2019-02-07T16:36:10.613Z,93.70
2019-02-07T16:38:40.310Z,96.33
2019-02-07T16:41:10.594Z,95.73
2019-02-07T16:43:40.355Z,120.37
2019-02-07T16:46:10.001Z,109.70
2019-02-07T16:48:39.535Z,108.67
2019-02-07T16:51:09.268Z,106.53
2019-02-07T16:53:38.677Z,102.00
2019-02-07T16:56:08.444Z,100.93
2019-02-07T16:58:37.884Z,104.23
2019-02-07T17:01:09.158Z,96.57
2019-02-07T17:03:38.849Z,100.67
2019-02-07T17:06:08.745Z,102.43
2019-02-07T17:08:37.978Z,100.40
2019-02-07T17:11:09.912Z,96.77
2019-02-07T17:13:39.224Z,101.70
2019-02-07T17:16:08.794Z,114.73
2019-02-07T17:18:38.064Z,141.30
2019-02-07T17:21:12.064Z,137.60
2019-02-07T17:23:38.547Z,139.90
2019-02-07T17:26:07.866Z,130.53
2019-02-07T17:28:37.239Z,122.73
2019-02-07T17:31:06.832Z,130.77
2019-02-07T17:33:37.347Z,126.57
2019-02-07T17:36:06.790Z,134.33
2019-02-07T17:38:36.339Z,145.47
2019-02-07T17:41:06.011Z,148.20
2019-02-07T17:43:35.531Z,149.00
2019-02-07T17:46:04.751Z,162.57
2019-02-07T17:48:34.066Z,160.17
2019-02-07T17:51:03.441Z,167.73
2019-02-07T17:53:33.395Z,157.80
2019-02-07T17:56:02.751Z,152.77
2019-02-07T17:58:32.048Z,160.07
2019-02-07T18:01:07.877Z,167.47
2019-02-07T18:03:37.590Z,157.50
2019-02-07T18:06:08.410Z,165.83
2019-02-07T18:08:37.871Z,156.60
2019-02-07T18:11:08.746Z,146.53
2019-02-07T18:13:38.072Z,149.00
2019-02-07T18:16:07.844Z,153.50
2019-02-07T18:18:37.112Z,182.00
2019-02-07T18:21:06.439Z,194.63
2019-02-07T18:23:35.827Z,159.30
2019-02-07T18:26:05.579Z,153.23
2019-02-07T18:28:34.946Z,164.63
2019-02-07T18:31:04.402Z,155.87
2019-02-07T18:33:33.595Z,157.83
2019-02-07T18:36:03.201Z,164.63
2019-02-07T18:38:32.858Z,152.80
2019-02-07T18:41:02.301Z,158.97
2019-02-07T18:43:31.671Z,159.90
2019-02-07T18:46:01.007Z,165.57
2019-02-07T18:48:30.327Z,170.17
2019-02-07T18:50:59.676Z,194.70
2019-02-07T18:53:28.971Z,185.33
2019-02-07T18:55:58.824Z,199.20
2019-02-07T18:58:28.267Z,198.43
2019-02-07T19:00:57.567Z,210.17
2019-02-07T19:03:27.954Z,213.47
2019-02-07T19:05:57.272Z,222.00
2019-02-07T19:08:26.819Z,231.57
2019-02-07T19:10:56.326Z,228.37
2019-02-07T19:13:25.953Z,231.57
2019-02-07T19:16:08.557Z,231.47
2019-02-07T19:18:37.946Z,235.53
2019-02-07T19:21:07.467Z,238.40
2019-02-07T19:23:37.088Z,249.23
2019-02-07T19:26:06.474Z,257.80
2019-02-07T19:28:35.788Z,259.33
2019-02-07T19:31:05.195Z,260.10
2019-02-07T19:33:34.583Z,258.40
2019-02-07T19:36:04.247Z,263.60
2019-02-07T19:38:33.548Z,259.40
2019-02-07T19:41:02.944Z,252.47
2019-02-07T19:43:32.378Z,255.13
2019-02-07T19:46:02.057Z,237.83
2019-02-07T19:48:31.447Z,243.77
2019-02-07T19:51:01.191Z,240.87
2019-02-07T19:53:30.547Z,234.03
2019-02-07T19:55:59.841Z,240.50
2019-02-07T19:58:29.300Z,253.63
2019-02-07T20:00:59.452Z,242.70
2019-02-07T20:03:28.839Z,241.73
2019-02-07T20:05:59.792Z,257.07
2019-02-07T20:08:29.298Z,253.93
2019-02-07T20:11:01.492Z,247.73
2019-02-07T20:13:30.827Z,251.17
2019-02-07T20:16:00.343Z,257.80
2019-02-07T20:18:29.615Z,256.97
2019-02-07T20:20:59.563Z,276.73
2019-02-07T20:23:28.934Z,269.50
2019-02-07T20:25:58.243Z,274.23
2019-02-07T20:28:27.668Z,250.90
2019-02-07T20:30:56.972Z,235.00
2019-02-07T20:33:26.384Z,245.57
2019-02-07T20:35:58.745Z,211.80
2019-02-07T20:38:27.875Z,194.33
2019-02-07T20:40:57.784Z,184.57
2019-02-07T20:43:27.341Z,177.97
2019-02-07T20:45:56.715Z,167.83
2019-02-07T20:48:26.156Z,158.10
2019-02-07T20:50:57.656Z,142.87
2019-02-07T20:53:27.143Z,139.43
2019-02-07T20:55:56.539Z,143.13
2019-02-07T20:58:25.932Z,126.53
2019-02-07T21:00:55.540Z,125.40
2019-02-07T21:03:25.035Z,121.53
2019-02-07T21:05:54.448Z,117.10
2019-02-07T21:08:24.028Z,112.43
2019-02-07T21:10:53.731Z,113.67
2019-02-07T21:13:23.020Z,115.33
2019-02-07T21:15:52.415Z,127.33
2019-02-07T21:18:21.802Z,133.17
2019-02-07T21:20:51.270Z,127.37
2019-02-07T21:23:20.650Z,127.93
2019-02-07T21:25:51.714Z,128.50
2019-02-07T21:28:21.358Z,123.07
2019-02-07T21:30:50.759Z,117.73
2019-02-07T21:33:20.049Z,120.70
2019-02-07T21:35:49.412Z,125.70
2019-02-07T21:38:18.703Z,123.50
2019-02-07T21:40:48.060Z,117.47
2019-02-07T21:43:17.443Z,129.87
2019-02-07T21:45:46.845Z,130.53
2019-02-07T21:48:16.219Z,133.03
2019-02-07T21:50:45.575Z,132.87
2019-02-07T21:53:14.982Z,118.67
2019-02-07T21:55:44.296Z,117.17
2019-02-07T21:58:15.955Z,118.10
2019-02-07T22:00:46.081Z,125.70
2019-02-07T22:03:16.048Z,134.77
2019-02-07T22:05:47.518Z,124.17
2019-02-07T22:08:17.588Z,123.03
2019-02-07T22:10:46.935Z,127.97
2019-02-07T22:13:16.135Z,129.57
2019-02-07T22:15:45.463Z,120.33
2019-02-07T22:18:15.039Z,116.93
2019-02-07T22:20:44.455Z,112.40
2019-02-07T22:23:13.755Z,118.40
2019-02-07T22:25:43.124Z,116.63
2019-02-07T22:28:12.648Z,114.33
2019-02-07T22:30:43.152Z,127.17
2019-02-07T22:33:12.433Z,121.50
2019-02-07T22:35:41.810Z,131.13
2019-02-07T22:38:11.315Z,133.07
2019-02-07T22:40:40.703Z,116.17
2019-02-07T22:43:10.330Z,115.73
2019-02-07T22:45:41.597Z,117.47
2019-02-07T22:48:13.078Z,118.13
2019-02-07T22:50:42.394Z,117.60
2019-02-07T22:53:12.054Z,111.60
2019-02-07T22:55:41.352Z,109.70
2019-02-07T22:58:10.687Z,123.70
2019-02-07T23:01:27.395Z,117.20
2019-02-07T23:04:06.239Z,118.13
2019-02-07T23:06:35.680Z,125.67
2019-02-07T23:09:27.755Z,122.10
2019-02-07T23:12:09.977Z,114.47
2019-02-07T23:14:40.167Z,114.20
2019-02-07T23:17:09.233Z,117.87
2019-02-07T23:19:38.225Z,123.83
2019-02-07T23:22:07.245Z,128.33
2019-02-07T23:24:40.276Z,131.30
2019-02-07T23:27:09.380Z,133.80
2019-02-07T23:29:39.462Z,132.03
2019-02-07T23:32:08.739Z,127.57
2019-02-07T23:34:37.664Z,126.93
2019-02-07T23:37:06.987Z,138.33
2019-02-07T23:39:35.941Z,129.80
2019-02-07T23:42:05.516Z,131.43
2019-02-07T23:44:34.616Z,127.07
2019-02-07T23:47:03.537Z,132.63
2019-02-07T23:49:32.433Z,125.40
2019-02-07T23:52:01.450Z,131.67
2019-02-07T23:54:30.750Z,131.30
2019-02-07T23:56:59.824Z,132.80
2019-02-07T23:59:29.049Z,122.63
